Time;durP1;ratioP1;P1;durP2;ratioP2;P2;SDS_P1;SDS_P2;PMS_P1;PMS_P2;Temp;Humidity;BMP_temperature;BMP_pressure;BME280_temperature;BME280_humidity;BME280_pressure;Samples;Min_cycle;Max_cycle;Signal;HPM_P1;HPM_P2
2022/03/23 00:01:13;;;;;;;;;;;7.10;99.90;;;;;;4968954;28;19929;-72
2022/03/23 00:03:38;;;;;;;;;;;7.00;99.90;;;;;;4974077;28;19933;-72
2022/03/23 00:06:04;;;;;;;;;;;7.00;99.90;;;;;;4983913;28;19925;-72
2022/03/23 00:08:30;;;;;;;;;;;7.10;99.90;;;;;;4958370;28;19936;-72
2022/03/23 00:10:56;;;;;;;;;;;7.00;99.90;;;;;;4951631;28;19929;-72
2022/03/23 00:13:22;;;;;;;;;;;7.00;99.90;;;;;;4967067;28;19929;-72
2022/03/23 00:15:48;;;;;;;;;;;7.00;99.90;;;;;;4970462;28;19929;-72
2022/03/23 00:18:13;;;;;;;;;;;7.00;99.90;;;;;;4969452;28;20895;-73
2022/03/23 00:20:39;;;;;;;;;;;6.90;99.90;;;;;;4990731;28;20425;-72
2022/03/23 00:23:05;;;;;;;;;;;6.90;99.90;;;;;;4969879;28;20398;-73
2022/03/23 00:25:31;;;;;;;;;;;7.00;99.90;;;;;;4982110;28;20452;-73
2022/03/23 00:27:56;;;;;;;;;;;7.10;99.90;;;;;;4962717;28;19957;-72
2022/03/23 00:30:22;;;;;;;;;;;7.00;99.90;;;;;;4965371;28;19985;-72
2022/03/23 00:32:48;;;;;;;;;;;7.00;99.90;;;;;;4964750;28;19929;-72
2022/03/23 00:35:13;;;;;;;;;;;7.00;99.90;;;;;;4981051;28;20518;-72
2022/03/23 00:37:39;;;;;;;;;;;6.90;99.90;;;;;;4950556;28;19933;-72
2022/03/23 00:40:05;;;;;;;;;;;6.80;99.90;;;;;;4982464;28;19933;-72
2022/03/23 00:42:30;;;;;;;;;;;6.70;99.90;;;;;;4978900;28;19926;-72
2022/03/23 00:44:58;;;;;;;;;;;6.50;99.90;;;;;;4964438;28;20237;-72
2022/03/23 00:47:23;;;;;;;;;;;6.50;99.90;;;;;;4962211;28;19940;-72
2022/03/23 00:49:49;;;;;;;;;;;6.60;99.90;;;;;;4980801;28;19929;-72
2022/03/23 00:52:14;;;;;;;;;;;6.60;99.90;;;;;;4984415;28;20023;-72
2022/03/23 00:54:40;;;;;;;;;;;6.50;99.90;;;;;;4980338;28;19940;-72
2022/03/23 00:57:06;;;;;;;;;;;6.40;99.90;;;;;;4980209;28;19936;-72
2022/03/23 00:59:32;;;;;;;;;;;6.40;99.90;;;;;;4982295;28;19972;-72
2022/03/23 01:01:58;;;;;;;;;;;6.40;99.90;;;;;;4980967;28;20302;-72
2022/03/23 01:04:24;;;;;;;;;;;6.40;99.90;;;;;;4967526;28;19975;-72
2022/03/23 01:06:52;;;;;;;;;;;6.50;99.90;;;;;;4978751;28;19968;-72
2022/03/23 01:09:22;;;;;;;;;;;6.50;99.90;;;;;;4978698;28;20387;-72
2022/03/23 01:11:49;;;;;;;;;;;6.40;99.90;;;;;;4967449;28;19929;-72
2022/03/23 01:14:14;;;;;;;;;;;6.30;99.90;;;;;;4984488;28;19936;-72
2022/03/23 01:16:40;;;;;;;;;;;6.20;99.90;;;;;;4963210;28;20297;-72
2022/03/23 01:19:06;;;;;;;;;;;6.20;99.90;;;;;;4972479;28;19940;-73
2022/03/23 01:21:32;;;;;;;;;;;6.10;99.90;;;;;;4968522;28;20646;-73
2022/03/23 01:23:57;;;;;;;;;;;6.00;99.90;;;;;;4984137;28;19937;-73
2022/03/23 01:26:23;;;;;;;;;;;6.00;99.90;;;;;;4979003;28;20054;-73
2022/03/23 01:28:49;;;;;;;;;;;6.00;99.90;;;;;;4980235;28;19929;-73
2022/03/23 01:31:14;;;;;;;;;;;6.00;99.90;;;;;;4965164;28;19933;-73
2022/03/23 01:33:40;;;;;;;;;;;6.00;99.90;;;;;;4961354;28;20006;-73
2022/03/23 01:36:06;;;;;;;;;;;6.00;99.90;;;;;;4967582;28;20274;-73
2022/03/23 01:38:31;;;;;;;;;;;5.90;99.90;;;;;;4967231;28;19979;-73
2022/03/23 01:40:57;;;;;;;;;;;5.90;99.90;;;;;;4965848;28;20361;-73
2022/03/23 01:43:22;;;;;;;;;;;5.90;99.90;;;;;;4984508;28;19980;-73
2022/03/23 01:45:48;;;;;;;;;;;5.80;99.90;;;;;;4966488;28;19929;-73
2022/03/23 01:48:14;;;;;;;;;;;5.80;99.90;;;;;;4965042;28;20849;-73
2022/03/23 01:50:40;;;;;;;;;;;5.70;99.90;;;;;;4981467;28;20362;-73
2022/03/23 01:53:06;;;;;;;;;;;5.70;99.90;;;;;;4966235;28;20466;-73
2022/03/23 01:55:32;;;;;;;;;;;5.60;99.90;;;;;;4961413;28;20264;-73
2022/03/23 01:57:58;;;;;;;;;;;5.60;99.90;;;;;;4961226;28;19933;-73
2022/03/23 02:00:26;;;;;;;;;;;5.50;99.90;;;;;;4967163;28;19976;-73
2022/03/23 02:02:52;;;;;;;;;;;5.60;99.90;;;;;;4980745;28;19929;-73
2022/03/23 02:05:17;;;;;;;;;;;5.60;99.90;;;;;;4939980;28;20018;-73
2022/03/23 02:07:43;;;;;;;;;;;5.50;99.90;;;;;;4980159;28;19963;-73
2022/03/23 02:10:09;;;;;;;;;;;5.50;99.90;;;;;;4978835;28;20909;-73
2022/03/23 02:12:34;;;;;;;;;;;5.50;99.90;;;;;;4963889;28;19976;-73
2022/03/23 02:15:09;;;;;;;;;;;5.50;99.90;;;;;;4981757;28;20411;-73
2022/03/23 02:17:35;;;;;;;;;;;5.50;99.90;;;;;;4967871;28;19933;-73
2022/03/23 02:20:01;;;;;;;;;;;5.40;99.90;;;;;;4969047;28;19986;-73
2022/03/23 02:22:26;;;;;;;;;;;5.50;99.90;;;;;;4969212;28;19965;-73
2022/03/23 02:24:52;;;;;;;;;;;5.40;99.90;;;;;;4984812;28;20301;-73
2022/03/23 02:27:18;;;;;;;;;;;5.40;99.90;;;;;;4946473;28;19929;-73
2022/03/23 02:29:44;;;;;;;;;;;5.40;99.90;;;;;;4987768;28;20747;-73
2022/03/23 02:32:10;;;;;;;;;;;5.50;99.90;;;;;;4985504;28;19963;-73
2022/03/23 02:34:35;;;;;;;;;;;5.40;99.90;;;;;;4971284;28;19933;-73
2022/03/23 02:37:01;;;;;;;;;;;5.30;99.90;;;;;;4986148;28;19972;-73
2022/03/23 02:39:27;;;;;;;;;;;5.20;99.90;;;;;;4968050;28;20029;-73
2022/03/23 02:41:53;;;;;;;;;;;5.20;99.90;;;;;;4986103;28;19961;-73
2022/03/23 02:44:20;;;;;;;;;;;5.20;99.90;;;;;;4980019;28;19980;-73
2022/03/23 02:46:45;;;;;;;;;;;5.30;99.90;;;;;;4969195;28;19933;-73
2022/03/23 02:49:11;;;;;;;;;;;5.30;99.90;;;;;;4963841;28;19936;-73
2022/03/23 02:51:37;;;;;;;;;;;5.20;99.90;;;;;;4968461;28;20039;-73
2022/03/23 03:02:35;;;;;;;;;;;5.10;99.90;;;;;;4970154;28;19929;-73
2022/03/23 03:05:01;;;;;;;;;;;5.10;99.90;;;;;;4974577;28;19929;-73
2022/03/23 03:07:26;;;;;;;;;;;5.00;99.90;;;;;;4967832;28;19926;-73
2022/03/23 03:09:52;;;;;;;;;;;5.00;99.90;;;;;;4966127;28;19925;-73
2022/03/23 03:12:17;;;;;;;;;;;4.90;99.90;;;;;;4985808;28;19964;-73
2022/03/23 03:14:43;;;;;;;;;;;4.90;99.90;;;;;;4983599;28;19933;-73
2022/03/23 03:17:09;;;;;;;;;;;4.90;99.90;;;;;;4959535;28;19936;-73
2022/03/23 03:19:35;;;;;;;;;;;4.90;99.90;;;;;;4986071;28;20754;-73
2022/03/23 03:22:00;;;;;;;;;;;4.80;99.90;;;;;;4986167;28;19983;-73
2022/03/23 03:24:27;;;;;;;;;;;4.90;99.90;;;;;;4964290;28;19928;-73
2022/03/23 03:26:54;;;;;;;;;;;4.80;99.90;;;;;;4984809;28;19991;-73
2022/03/23 03:29:20;;;;;;;;;;;4.80;99.90;;;;;;4984703;28;19932;-73
2022/03/23 03:31:46;;;;;;;;;;;4.70;99.90;;;;;;4965402;28;20599;-73
2022/03/23 03:34:11;;;;;;;;;;;4.60;99.90;;;;;;4982746;28;19928;-73
2022/03/23 03:36:37;;;;;;;;;;;4.60;99.90;;;;;;4965233;28;19936;-73
2022/03/23 03:39:03;;;;;;;;;;;4.70;99.90;;;;;;4959892;28;20503;-73
2022/03/23 03:41:29;;;;;;;;;;;4.60;99.90;;;;;;4964441;28;19929;-73
2022/03/23 03:43:56;;;;;;;;;;;4.70;99.90;;;;;;4966581;28;19929;-73
2022/03/23 03:46:21;;;;;;;;;;;4.60;99.90;;;;;;4986969;28;19939;-73
2022/03/23 03:48:47;;;;;;;;;;;4.60;99.90;;;;;;4978360;28;19933;-73
2022/03/23 03:51:13;;;;;;;;;;;4.60;99.90;;;;;;4967127;28;19936;-73
2022/03/23 03:53:38;;;;;;;;;;;4.60;99.90;;;;;;4980393;28;19937;-73
2022/03/23 03:56:04;;;;;;;;;;;4.50;99.90;;;;;;4950866;28;20020;-73
2022/03/23 03:58:30;;;;;;;;;;;4.50;99.90;;;;;;4968419;28;20314;-73
2022/03/23 04:00:55;;;;;;;;;;;4.50;99.90;;;;;;4963057;28;19936;-73
2022/03/23 04:03:21;;;;;;;;;;;4.50;99.90;;;;;;4966189;28;20066;-73
2022/03/23 04:05:47;;;;;;;;;;;4.60;99.90;;;;;;4963845;28;19929;-73
2022/03/23 04:08:12;;;;;;;;;;;4.50;99.90;;;;;;4960896;28;19928;-73
2022/03/23 04:10:38;;;;;;;;;;;4.50;99.90;;;;;;4965383;28;19933;-73
2022/03/23 04:13:07;;;;;;;;;;;4.40;99.90;;;;;;4981784;28;20006;-73
2022/03/23 04:15:33;;;;;;;;;;;4.50;99.90;;;;;;4982058;28;19987;-73
2022/03/23 04:17:59;;;;;;;;;;;4.50;99.90;;;;;;4971093;28;19933;-73
2022/03/23 04:20:25;;;;;;;;;;;4.40;99.90;;;;;;4982600;28;19940;-73
2022/03/23 04:22:51;;;;;;;;;;;4.30;99.90;;;;;;4969986;28;19929;-73
2022/03/23 04:25:17;;;;;;;;;;;4.30;99.90;;;;;;4964651;28;19929;-73
2022/03/23 04:27:46;;;;;;;;;;;4.40;99.90;;;;;;4966221;28;19989;-73
2022/03/23 04:30:12;;;;;;;;;;;4.30;99.90;;;;;;4979021;28;20825;-73
2022/03/23 04:32:38;;;;;;;;;;;4.30;99.90;;;;;;4983922;28;19929;-73
2022/03/23 04:35:04;;;;;;;;;;;4.30;99.90;;;;;;4979063;28;20287;-73
2022/03/23 04:37:30;;;;;;;;;;;4.20;99.90;;;;;;4965585;28;19928;-73
2022/03/23 04:39:56;;;;;;;;;;;4.20;99.90;;;;;;4962393;28;19957;-73
2022/03/23 04:42:22;;;;;;;;;;;4.20;99.90;;;;;;4971738;28;20649;-73
2022/03/23 04:44:47;;;;;;;;;;;4.20;99.90;;;;;;4965688;28;19929;-73
2022/03/23 04:47:13;;;;;;;;;;;4.30;99.90;;;;;;4964740;28;19979;-73
2022/03/23 04:49:39;;;;;;;;;;;4.30;99.90;;;;;;4964699;28;19940;-73
2022/03/23 04:52:04;;;;;;;;;;;4.30;99.90;;;;;;4962291;28;19926;-73
2022/03/23 04:54:30;;;;;;;;;;;4.30;99.90;;;;;;4962459;28;19933;-73
2022/03/23 04:56:56;;;;;;;;;;;4.30;99.90;;;;;;4964994;28;20016;-73
2022/03/23 04:59:21;;;;;;;;;;;4.20;99.90;;;;;;4965036;28;19936;-73
2022/03/23 05:01:47;;;;;;;;;;;4.20;99.90;;;;;;4981313;28;19960;-73
2022/03/23 05:04:13;;;;;;;;;;;4.20;99.90;;;;;;4978667;28;19968;-73
2022/03/23 05:06:38;;;;;;;;;;;4.20;99.90;;;;;;4984229;28;19966;-73
2022/03/23 05:09:04;;;;;;;;;;;4.20;99.90;;;;;;4965780;28;19980;-73
2022/03/23 05:11:30;;;;;;;;;;;4.00;99.90;;;;;;4987279;28;19928;-73
2022/03/23 05:13:55;;;;;;;;;;;4.00;99.90;;;;;;4990734;28;19933;-73
2022/03/23 05:16:21;;;;;;;;;;;4.00;99.90;;;;;;4984801;28;19933;-73
2022/03/23 05:18:46;;;;;;;;;;;4.00;99.90;;;;;;4986649;28;21119;-73
2022/03/23 05:21:21;;;;;;;;;;;4.00;99.90;;;;;;4981973;28;19929;-73
2022/03/23 05:23:46;;;;;;;;;;;4.20;99.90;;;;;;4966157;28;20009;-73
2022/03/23 05:26:12;;;;;;;;;;;4.10;99.90;;;;;;4963178;28;19933;-73
2022/03/23 05:28:38;;;;;;;;;;;4.10;99.90;;;;;;4965651;28;19933;-73
2022/03/23 05:31:04;;;;;;;;;;;4.10;99.90;;;;;;4961588;28;20725;-73
2022/03/23 05:33:29;;;;;;;;;;;4.00;99.90;;;;;;4973596;28;19929;-71
2022/03/23 05:35:55;;;;;;;;;;;4.10;99.90;;;;;;4965922;28;19933;-72
2022/03/23 05:38:21;;;;;;;;;;;4.10;99.90;;;;;;4963143;28;19997;-73
2022/03/23 05:40:46;;;;;;;;;;;4.10;99.90;;;;;;4979074;28;19929;-73
2022/03/23 05:43:12;;;;;;;;;;;4.10;99.90;;;;;;4967536;28;19929;-72
2022/03/23 05:45:38;;;;;;;;;;;4.20;99.90;;;;;;4960267;28;19929;-73
2022/03/23 05:48:04;;;;;;;;;;;4.20;99.90;;;;;;4983857;28;20386;-73
2022/03/23 05:50:29;;;;;;;;;;;4.30;99.90;;;;;;4980952;28;20020;-73
2022/03/23 05:52:55;;;;;;;;;;;4.30;99.90;;;;;;4981238;28;20364;-73
2022/03/23 05:55:21;;;;;;;;;;;4.40;99.90;;;;;;4966617;28;19940;-73
2022/03/23 05:57:46;;;;;;;;;;;4.40;99.90;;;;;;4958235;28;19929;-72
2022/03/23 06:00:12;;;;;;;;;;;4.40;99.90;;;;;;4955065;28;20048;-73
2022/03/23 06:02:39;;;;;;;;;;;4.50;99.90;;;;;;4968420;28;19929;-72
2022/03/23 06:05:04;;;;;;;;;;;4.60;99.90;;;;;;4957387;28;19934;-72
2022/03/23 06:07:30;;;;;;;;;;;4.70;99.90;;;;;;4968424;28;19936;-72
2022/03/23 06:09:55;;;;;;;;;;;4.70;99.90;;;;;;4984518;28;20750;-72
2022/03/23 06:12:21;;;;;;;;;;;4.80;99.90;;;;;;4975558;28;20142;-73
2022/03/23 06:14:47;;;;;;;;;;;4.90;99.90;;;;;;4966058;28;19934;-73
2022/03/23 06:17:13;;;;;;;;;;;5.20;99.90;;;;;;5000382;28;19959;-72
2022/03/23 06:19:38;;;;;;;;;;;5.20;99.90;;;;;;4969238;28;20099;-72
2022/03/23 06:22:05;;;;;;;;;;;5.30;99.90;;;;;;4982791;28;20299;-72
2022/03/23 06:24:31;;;;;;;;;;;5.50;99.90;;;;;;4986043;28;20338;-73
2022/03/23 06:26:56;;;;;;;;;;;5.50;99.90;;;;;;4982971;28;19960;-73
2022/03/23 06:29:22;;;;;;;;;;;5.50;99.90;;;;;;4984740;28;20371;-71
2022/03/23 06:31:47;;;;;;;;;;;5.70;99.90;;;;;;5001943;28;19987;-73
2022/03/23 06:34:13;;;;;;;;;;;6.00;99.90;;;;;;4985333;28;20406;-73
2022/03/23 06:36:39;;;;;;;;;;;6.20;99.90;;;;;;5000479;28;20002;-73
2022/03/23 06:39:04;;;;;;;;;;;6.30;99.90;;;;;;4997174;28;20577;-72
2022/03/23 06:41:30;;;;;;;;;;;6.70;99.90;;;;;;5000504;28;19933;-73
2022/03/23 06:43:56;;;;;;;;;;;6.80;99.90;;;;;;5000223;28;19933;-73
2022/03/23 06:46:21;;;;;;;;;;;7.30;99.90;;;;;;4989209;28;19955;-73
2022/03/23 06:48:47;;;;;;;;;;;7.40;99.90;;;;;;4980920;28;19929;-73
2022/03/23 06:51:13;;;;;;;;;;;7.60;99.90;;;;;;4984801;28;19939;-73
2022/03/23 06:53:39;;;;;;;;;;;7.70;99.90;;;;;;4999212;28;19940;-73
2022/03/23 06:56:05;;;;;;;;;;;8.10;99.90;;;;;;4982713;28;19933;-73
2022/03/23 06:58:30;;;;;;;;;;;8.40;99.90;;;;;;4980297;28;20239;-73
2022/03/23 07:00:57;;;;;;;;;;;8.60;99.90;;;;;;5001315;28;20098;-73
2022/03/23 07:03:26;;;;;;;;;;;8.50;99.90;;;;;;5003594;28;19929;-73
2022/03/23 07:05:52;;;;;;;;;;;8.60;99.90;;;;;;5003899;28;20389;-73
2022/03/23 07:11:02;;;;;;;;;;;9.00;99.90;;;;;;4994984;28;20425;-73
2022/03/23 07:13:28;;;;;;;;;;;9.40;99.90;;;;;;5002074;28;19929;-73
2022/03/23 07:15:54;;;;;;;;;;;9.50;99.90;;;;;;4982839;28;19929;-73
2022/03/23 07:18:19;;;;;;;;;;;9.80;99.90;;;;;;5001679;28;20065;-73
2022/03/23 07:20:45;;;;;;;;;;;9.80;99.90;;;;;;4983792;28;19933;-73
2022/03/23 07:23:11;;;;;;;;;;;9.60;99.90;;;;;;4982232;28;19935;-73
2022/03/23 07:25:36;;;;;;;;;;;9.70;99.90;;;;;;4969654;28;19936;-73
2022/03/23 07:28:02;;;;;;;;;;;9.90;99.90;;;;;;5003545;28;19998;-73
2022/03/23 07:30:29;;;;;;;;;;;9.90;99.90;;;;;;4999490;28;19975;-73
2022/03/23 07:32:54;;;;;;;;;;;10.00;99.90;;;;;;5003743;28;20020;-73
2022/03/23 07:35:21;;;;;;;;;;;10.20;99.90;;;;;;4985493;28;20444;-73
2022/03/23 07:37:47;;;;;;;;;;;10.50;99.90;;;;;;4984243;28;20717;-73
2022/03/23 07:40:13;;;;;;;;;;;10.70;99.90;;;;;;4981774;28;19936;-73
2022/03/23 07:42:38;;;;;;;;;;;10.70;99.90;;;;;;4986631;28;20710;-73
2022/03/23 07:45:05;;;;;;;;;;;10.90;99.90;;;;;;5002956;28;19936;-73
2022/03/23 07:47:31;;;;;;;;;;;11.30;99.90;;;;;;5001988;28;19960;-72
2022/03/23 07:49:57;;;;;;;;;;;11.10;99.90;;;;;;5002563;28;20039;-73
2022/03/23 07:52:22;;;;;;;;;;;11.20;99.90;;;;;;5001081;28;20489;-73
2022/03/23 07:54:48;;;;;;;;;;;11.20;99.90;;;;;;4983366;28;19937;-73
2022/03/23 07:57:14;;;;;;;;;;;11.30;99.90;;;;;;4996966;28;19941;-73
2022/03/23 07:59:40;;;;;;;;;;;11.50;99.90;;;;;;4998603;28;19929;-73
2022/03/23 08:02:06;;;;;;;;;;;11.50;99.90;;;;;;4974135;28;19940;-73
2022/03/23 08:04:32;;;;;;;;;;;11.50;99.90;;;;;;4997201;28;20044;-73
2022/03/23 08:07:00;;;;;;;;;;;11.50;98.70;;;;;;4979272;28;19939;-73
2022/03/23 08:09:26;;;;;;;;;;;11.90;99.90;;;;;;4994701;28;19940;-73
2022/03/23 08:11:51;;;;;;;;;;;12.30;99.90;;;;;;4964786;28;19929;-73
2022/03/23 08:14:17;;;;;;;;;;;12.80;99.90;;;;;;4975273;28;19972;-73
2022/03/23 08:16:43;;;;;;;;;;;13.10;99.90;;;;;;4968398;28;20413;-73
2022/03/23 08:19:08;;;;;;;;;;;13.10;99.90;;;;;;4975390;28;20031;-73
2022/03/23 08:21:34;;;;;;;;;;;13.20;99.90;;;;;;4975051;28;19937;-74
2022/03/23 08:24:00;;;;;;;;;;;13.70;99.90;;;;;;4978657;28;19925;-73
2022/03/23 08:26:26;;;;;;;;;;;13.80;99.90;;;;;;4976064;28;19933;-74
2022/03/23 08:28:52;;;;;;;;;;;14.10;99.90;;;;;;4979667;28;19972;-74
2022/03/23 08:31:17;;;;;;;;;;;13.30;85.80;;;;;;4970477;28;19933;-74
2022/03/23 08:33:43;;;;;;;;;;;13.50;90.20;;;;;;4977398;28;19952;-74
2022/03/23 08:36:09;;;;;;;;;;;13.50;75.30;;;;;;4994903;28;19987;-73
2022/03/23 08:38:35;;;;;;;;;;;13.90;76.90;;;;;;4993746;28;19936;-73
2022/03/23 08:41:01;;;;;;;;;;;13.80;71.30;;;;;;4999726;28;19929;-73
2022/03/23 08:43:26;;;;;;;;;;;13.70;73.60;;;;;;4978828;28;19956;-73
2022/03/23 08:45:52;;;;;;;;;;;14.10;77.20;;;;;;5000437;28;20692;-73
2022/03/23 08:48:18;;;;;;;;;;;14.00;67.50;;;;;;4996722;28;20015;-74
2022/03/23 08:50:48;;;;;;;;;;;14.30;69.40;;;;;;4980598;28;19978;-74
2022/03/23 08:53:14;;;;;;;;;;;14.30;66.50;;;;;;4984546;28;20376;-74
2022/03/23 08:55:40;;;;;;;;;;;14.30;65.00;;;;;;4985999;28;19936;-74
2022/03/23 08:58:06;;;;;;;;;;;14.50;67.00;;;;;;4982166;28;19933;-72
2022/03/23 09:00:33;;;;;;;;;;;14.60;63.30;;;;;;5003228;28;20865;-74
2022/03/23 09:02:59;;;;;;;;;;;14.70;59.80;;;;;;4998211;28;20492;-73
2022/03/23 09:05:25;;;;;;;;;;;14.80;62.00;;;;;;4992298;28;19929;-74
2022/03/23 09:07:50;;;;;;;;;;;15.10;58.90;;;;;;4978224;28;19929;-74
2022/03/23 09:10:18;;;;;;;;;;;15.40;62.60;;;;;;4968189;28;19991;-74
2022/03/23 09:12:44;;;;;;;;;;;15.80;61.20;;;;;;4978397;28;19944;-73
2022/03/23 09:15:11;;;;;;;;;;;16.20;60.20;;;;;;4982348;28;19929;-74
2022/03/23 09:17:37;;;;;;;;;;;16.40;63.00;;;;;;4982972;28;19929;-74
2022/03/23 09:20:04;;;;;;;;;;;16.00;49.50;;;;;;4983345;28;19929;-74
2022/03/23 09:22:33;;;;;;;;;;;16.30;54.60;;;;;;4984690;28;19929;-74
2022/03/23 09:24:59;;;;;;;;;;;16.10;50.50;;;;;;4987201;28;20126;-74
2022/03/23 09:27:25;;;;;;;;;;;16.30;56.10;;;;;;4998429;28;20290;-74
2022/03/23 09:29:50;;;;;;;;;;;16.30;52.10;;;;;;4978827;28;19929;-74
2022/03/23 09:32:17;;;;;;;;;;;16.70;48.20;;;;;;4976934;28;19985;-74
2022/03/23 09:34:43;;;;;;;;;;;17.00;53.50;;;;;;4993990;28;19929;-74
2022/03/23 09:39:52;;;;;;;;;;;17.00;53.80;;;;;;4977317;28;19977;-74
2022/03/23 09:42:18;;;;;;;;;;;17.10;53.10;;;;;;4977569;28;20032;-74
2022/03/23 09:44:45;;;;;;;;;;;17.60;51.90;;;;;;4974207;28;20341;-74
2022/03/23 09:47:10;;;;;;;;;;;17.30;51.40;;;;;;4979680;28;19980;-73
2022/03/23 09:49:37;;;;;;;;;;;17.00;48.90;;;;;;4998739;28;19937;-74
2022/03/23 09:52:04;;;;;;;;;;;16.70;49.00;;;;;;4999480;28;20611;-74
2022/03/23 09:54:30;;;;;;;;;;;16.60;47.00;;;;;;4999458;28;20082;-74
2022/03/23 09:56:55;;;;;;;;;;;16.90;51.60;;;;;;4996768;28;19933;-74
2022/03/23 09:59:21;;;;;;;;;;;17.40;47.80;;;;;;4978521;28;19960;-74
2022/03/23 10:01:47;;;;;;;;;;;17.50;47.30;;;;;;4978558;28;19929;-74
2022/03/23 10:04:12;;;;;;;;;;;17.70;50.30;;;;;;4981475;28;19929;-74
2022/03/23 10:06:53;;;;;;;;;;;16.90;43.80;;;;;;4976882;28;19929;-74
2022/03/23 10:09:37;;;;;;;;;;;16.70;45.20;;;;;;4977977;28;20043;-74
2022/03/23 10:12:22;;;;;;;;;;;16.80;45.70;;;;;;4981152;28;19929;-74
2022/03/23 10:15:13;;;;;;;;;;;17.10;46.90;;;;;;4976673;28;20024;-74
2022/03/23 10:17:58;;;;;;;;;;;17.70;53.00;;;;;;4997120;28;20051;-74
2022/03/23 10:20:24;;;;;;;;;;;17.60;48.70;;;;;;4998353;28;20416;-73
2022/03/23 10:22:51;;;;;;;;;;;17.40;49.30;;;;;;4971347;28;19929;-73
2022/03/23 10:25:21;;;;;;;;;;;17.40;45.90;;;;;;4975506;28;19929;-73
2022/03/23 10:27:46;;;;;;;;;;;17.90;49.90;;;;;;4975331;28;20028;-73
2022/03/23 10:30:16;;;;;;;;;;;17.90;42.90;;;;;;4978115;28;19991;-73
2022/03/23 10:32:42;;;;;;;;;;;17.70;46.50;;;;;;4976160;28;19925;-73
2022/03/23 10:35:13;;;;;;;;;;;17.90;47.50;;;;;;4981657;28;19929;-73
2022/03/23 10:37:39;;;;;;;;;;;18.40;48.90;;;;;;4997202;28;20382;-73
2022/03/23 10:40:07;;;;;;;;;;;18.60;46.90;;;;;;4992137;28;19967;-73
2022/03/23 10:42:33;;;;;;;;;;;18.00;43.90;;;;;;4980160;28;20707;-73
2022/03/23 10:45:04;;;;;;;;;;;17.70;41.90;;;;;;4980760;28;19929;-73
2022/03/23 10:47:33;;;;;;;;;;;17.70;42.80;;;;;;4982762;28;19929;-73
2022/03/23 10:50:07;;;;;;;;;;;17.30;40.40;;;;;;4996891;28;20004;-73
2022/03/23 10:52:33;;;;;;;;;;;17.80;43.10;;;;;;4999547;28;20471;-74
2022/03/23 10:55:04;;;;;;;;;;;17.20;40.90;;;;;;4983610;28;19929;-73
2022/03/23 10:57:57;;;;;;;;;;;17.40;42.70;;;;;;4967340;28;19936;-73
2022/03/23 11:00:30;;;;;;;;;;;17.40;42.10;;;;;;4997245;28;20047;-73
2022/03/23 11:02:56;;;;;;;;;;;17.70;42.50;;;;;;4985429;28;20007;-73
2022/03/23 11:05:48;;;;;;;;;;;17.50;42.20;;;;;;4985989;28;19929;-73
2022/03/23 11:08:22;;;;;;;;;;;17.70;44.80;;;;;;4981830;28;20639;-73
2022/03/23 11:16:23;;;;;;;;;;;17.80;43.80;;;;;;4978055;28;19930;-73
2022/03/23 11:18:49;;;;;;;;;;;18.00;46.00;;;;;;5000733;28;20379;-73
2022/03/23 11:21:14;;;;;;;;;;;18.30;46.00;;;;;;4983051;28;19928;-73
2022/03/23 11:23:40;;;;;;;;;;;18.00;41.70;;;;;;4983031;28;19986;-73
2022/03/23 11:26:07;;;;;;;;;;;17.60;40.70;;;;;;4982717;28;19972;-73
2022/03/23 11:28:38;;;;;;;;;;;18.00;43.00;;;;;;4983207;28;19987;-73
2022/03/23 11:31:05;;;;;;;;;;;17.80;39.70;;;;;;5001783;28;19964;-73
2022/03/23 11:33:32;;;;;;;;;;;18.80;46.30;;;;;;4982238;28;19925;-73
2022/03/23 11:35:58;;;;;;;;;;;18.80;45.10;;;;;;5000494;28;20420;-73
2022/03/23 11:38:27;;;;;;;;;;;19.20;44.90;;;;;;4996819;28;19925;-73
2022/03/23 11:40:54;;;;;;;;;;;18.60;42.50;;;;;;4983203;28;19929;-74
2022/03/23 11:43:24;;;;;;;;;;;18.30;42.10;;;;;;4995323;28;20503;-73
2022/03/23 11:45:51;;;;;;;;;;;18.10;39.50;;;;;;4997653;28;20035;-73
2022/03/23 11:48:35;;;;;;;;;;;18.80;44.90;;;;;;4970867;28;19972;-74
2022/03/23 11:51:19;;;;;;;;;;;18.90;40.90;;;;;;4979965;28;20374;-74
2022/03/23 11:54:04;;;;;;;;;;;18.80;46.40;;;;;;4981018;28;19929;-74
2022/03/23 11:56:43;;;;;;;;;;;19.00;44.80;;;;;;4983362;28;20027;-74
2022/03/23 11:59:20;;;;;;;;;;;19.30;45.20;;;;;;4982651;28;19929;-74
2022/03/23 12:01:45;;;;;;;;;;;18.70;39.50;;;;;;5000554;28;19944;-73
2022/03/23 12:04:13;;;;;;;;;;;19.00;42.40;;;;;;4979329;28;19929;-73
2022/03/23 12:06:39;;;;;;;;;;;18.90;40.90;;;;;;4979611;28;20060;-74
2022/03/23 12:09:05;;;;;;;;;;;18.20;40.80;;;;;;4967381;28;20799;-73
2022/03/23 12:11:34;;;;;;;;;;;18.90;44.40;;;;;;4994205;28;19941;-73
2022/03/23 12:14:00;;;;;;;;;;;19.50;41.50;;;;;;4996468;28;19964;-74
2022/03/23 12:16:45;;;;;;;;;;;18.60;38.90;;;;;;4979945;28;19999;-74
2022/03/23 12:19:10;;;;;;;;;;;19.10;39.70;;;;;;4971105;28;19933;-74
2022/03/23 12:21:55;;;;;;;;;;;18.90;43.70;;;;;;4981377;28;20059;-74
2022/03/23 12:24:32;;;;;;;;;;;19.10;42.70;;;;;;4968624;28;19945;-74
2022/03/23 12:27:01;;;;;;;;;;;18.90;38.40;;;;;;4984837;28;19936;-73
2022/03/23 12:29:28;;;;;;;;;;;19.20;40.60;;;;;;4985504;28;20722;-73
2022/03/23 12:32:03;;;;;;;;;;;19.10;39.90;;;;;;4981191;28;19940;-73
2022/03/23 12:34:29;;;;;;;;;;;19.20;40.90;;;;;;4994914;28;19929;-73
2022/03/23 12:37:05;;;;;;;;;;;18.60;39.10;;;;;;4995536;28;20386;-73
2022/03/23 12:39:35;;;;;;;;;;;19.10;41.20;;;;;;4964590;28;19937;-74
2022/03/23 12:42:16;;;;;;;;;;;19.00;41.20;;;;;;4973624;28;20747;-73
2022/03/23 12:44:42;;;;;;;;;;;19.20;40.00;;;;;;4978126;28;19933;-73
2022/03/23 12:47:12;;;;;;;;;;;18.90;39.30;;;;;;4996638;28;20019;-73
2022/03/23 12:58:02;;;;;;;;;;;19.20;39.20;;;;;;4975444;28;20278;-73
2022/03/23 13:00:54;;;;;;;;;;;19.30;41.60;;;;;;4960413;28;20409;-73
2022/03/23 13:03:19;;;;;;;;;;;19.20;40.50;;;;;;4967469;28;19925;-73
2022/03/23 13:05:54;;;;;;;;;;;18.80;40.30;;;;;;4972504;28;19929;-74
2022/03/23 13:08:42;;;;;;;;;;;18.80;41.10;;;;;;4946358;28;20363;-74
2022/03/23 13:11:09;;;;;;;;;;;19.30;41.10;;;;;;4989339;28;20785;-74
2022/03/23 13:13:36;;;;;;;;;;;19.30;40.80;;;;;;4970501;28;19938;-73
2022/03/23 13:16:02;;;;;;;;;;;19.40;41.90;;;;;;4955826;28;19936;-74
2022/03/23 13:18:29;;;;;;;;;;;19.80;44.50;;;;;;4968030;28;19933;-73
2022/03/23 13:20:58;;;;;;;;;;;20.10;45.30;;;;;;4972825;28;20034;-74
2022/03/23 13:23:25;;;;;;;;;;;20.00;42.90;;;;;;4991999;28;20064;-75
2022/03/23 13:26:05;;;;;;;;;;;19.50;39.60;;;;;;4970361;28;19933;-74
2022/03/23 13:28:34;;;;;;;;;;;19.90;43.00;;;;;;4971142;28;19937;-74
2022/03/23 13:31:00;;;;;;;;;;;20.30;43.60;;;;;;4977401;28;19979;-74
2022/03/23 13:33:33;;;;;;;;;;;19.90;42.90;;;;;;4962835;28;19933;-74
2022/03/23 13:36:01;;;;;;;;;;;20.30;42.70;;;;;;4975115;28;20159;-74
2022/03/23 13:38:32;;;;;;;;;;;19.80;39.30;;;;;;4991107;28;19940;-74
2022/03/23 13:43:43;;;;;;;;;;;20.00;41.50;;;;;;4992917;28;20582;-73
2022/03/23 13:46:09;;;;;;;;;;;19.20;36.90;;;;;;4978777;28;19960;-74
2022/03/23 13:48:36;;;;;;;;;;;19.50;39.10;;;;;;4975779;28;19933;-73
2022/03/23 13:51:02;;;;;;;;;;;19.40;40.40;;;;;;4995792;28;19929;-74
2022/03/23 13:53:28;;;;;;;;;;;20.00;41.10;;;;;;4994206;28;20288;-74
2022/03/23 13:55:54;;;;;;;;;;;19.70;39.70;;;;;;4965082;28;20098;-74
2022/03/23 13:58:22;;;;;;;;;;;19.20;38.50;;;;;;4978906;28;20031;-73
2022/03/23 14:00:50;;;;;;;;;;;19.50;42.90;;;;;;4977263;28;19936;-73
2022/03/23 14:03:20;;;;;;;;;;;20.00;40.80;;;;;;4976580;28;20381;-74
2022/03/23 14:06:05;;;;;;;;;;;20.10;42.90;;;;;;4978838;28;20138;-74
2022/03/23 14:08:35;;;;;;;;;;;19.50;36.80;;;;;;4971782;28;19933;-74
2022/03/23 14:11:02;;;;;;;;;;;20.40;43.50;;;;;;4972711;28;19929;-73
2022/03/23 14:13:27;;;;;;;;;;;19.70;39.90;;;;;;4991068;28;19933;-73
2022/03/23 14:15:55;;;;;;;;;;;19.60;37.50;;;;;;4980744;28;20189;-74
2022/03/23 14:18:23;;;;;;;;;;;19.70;42.80;;;;;;4992295;28;20725;-74
2022/03/23 14:20:56;;;;;;;;;;;19.20;36.80;;;;;;4978796;28;19960;-74
2022/03/23 14:23:31;;;;;;;;;;;19.50;38.80;;;;;;4998465;28;19929;-73
2022/03/23 14:25:57;;;;;;;;;;;19.70;36.90;;;;;;4981497;28;19979;-73
2022/03/23 14:28:25;;;;;;;;;;;19.60;40.70;;;;;;4999352;28;20386;-73
2022/03/23 14:30:58;;;;;;;;;;;19.50;39.50;;;;;;4995696;28;20616;-73
2022/03/23 14:33:25;;;;;;;;;;;19.10;38.20;;;;;;4997059;28;19929;-74
2022/03/23 14:35:50;;;;;;;;;;;19.10;37.00;;;;;;4978088;28;19965;-74
2022/03/23 14:38:17;;;;;;;;;;;19.40;38.80;;;;;;4995454;28;20024;-74
2022/03/23 14:40:48;;;;;;;;;;;19.40;37.60;;;;;;4979141;28;19929;-73
2022/03/23 14:43:33;;;;;;;;;;;19.70;39.30;;;;;;4979093;28;19952;-73
2022/03/23 14:46:21;;;;;;;;;;;19.30;40.00;;;;;;4957834;28;19940;-73
2022/03/23 14:49:04;;;;;;;;;;;19.70;40.10;;;;;;4954065;28;19937;-74
2022/03/23 14:51:29;;;;;;;;;;;19.60;41.10;;;;;;4978871;28;19929;-73
2022/03/23 14:53:55;;;;;;;;;;;19.30;39.40;;;;;;4969866;28;19934;-73
2022/03/23 14:56:21;;;;;;;;;;;19.20;37.70;;;;;;4963641;28;19929;-73